Time;durP1;ratioP1;P1;durP2;ratioP2;P2;SDS_P1;SDS_P2;PMS_P1;PMS_P2;Temp;Humidity;BMP_temperature;BMP_pressure;BME280_temperature;BME280_humidity;BME280_pressure;Samples;Min_cycle;Max_cycle;Signal;HPM_P1;HPM_P2
2023/12/09 00:02:08;;;;;;;38.22;8.35;;;8.80;99.90;;;;;;4878633;29;20041;-78
2023/12/09 00:04:33;;;;;;;32.83;8.82;;;8.90;99.90;;;;;;4878648;29;20060;-76
2023/12/09 00:06:59;;;;;;;41.83;8.88;;;8.80;99.90;;;;;;4878797;29;20075;-76
2023/12/09 00:09:25;;;;;;;36.20;8.65;;;8.80;99.90;;;;;;4879345;29;20132;-76
2023/12/09 00:11:50;;;;;;;38.67;8.85;;;8.80;99.90;;;;;;4879455;29;20404;-76
2023/12/09 00:14:16;;;;;;;31.98;8.20;;;8.90;99.90;;;;;;4878493;29;20347;-77
2023/12/09 00:16:42;;;;;;;33.55;8.38;;;8.80;99.90;;;;;;4878664;29;20045;-76
2023/12/09 00:19:09;;;;;;;35.75;9.10;;;8.80;99.90;;;;;;4861879;29;20029;-77
2023/12/09 00:21:35;;;;;;;31.67;8.23;;;8.80;99.90;;;;;;4862190;29;20033;-77
2023/12/09 00:24:00;;;;;;;34.80;7.95;;;8.80;99.90;;;;;;4879181;29;20112;-77
2023/12/09 00:26:26;;;;;;;35.63;7.35;;;8.80;99.90;;;;;;4881806;29;20405;-77
2023/12/09 00:28:52;;;;;;;36.78;7.53;;;8.80;99.90;;;;;;4881798;29;20175;-77
2023/12/09 00:31:18;;;;;;;29.85;7.35;;;8.80;99.90;;;;;;4881978;29;20039;-77
2023/12/09 00:33:43;;;;;;;34.28;7.85;;;8.80;99.90;;;;;;4882281;29;20081;-78
2023/12/09 00:36:09;;;;;;;36.92;7.75;;;8.80;99.90;;;;;;4865185;29;20037;-79
2023/12/09 00:38:35;;;;;;;30.75;7.80;;;8.80;99.90;;;;;;4881436;29;20421;-76
2023/12/09 00:41:00;;;;;;;33.42;7.88;;;8.80;99.90;;;;;;4881528;29;20029;-73
2023/12/09 00:43:26;;;;;;;31.67;8.00;;;8.80;99.90;;;;;;4881685;29;20039;-76
2023/12/09 00:45:52;;;;;;;29.65;6.85;;;8.90;99.90;;;;;;4849682;29;20037;-76
2023/12/09 00:48:17;;;;;;;31.63;7.47;;;8.90;99.90;;;;;;4881921;29;20136;-76
2023/12/09 00:50:43;;;;;;;33.78;8.00;;;8.80;99.90;;;;;;4882274;29;20033;-76
2023/12/09 00:53:08;;;;;;;38.65;8.95;;;8.80;99.90;;;;;;4864678;29;20064;-76
2023/12/09 00:55:34;;;;;;;30.35;7.38;;;8.80;99.90;;;;;;4881844;29;20331;-76
2023/12/09 00:58:00;;;;;;;38.67;8.25;;;8.90;99.90;;;;;;4881470;29;20056;-75
2023/12/09 01:00:25;;;;;;;32.22;7.82;;;8.80;99.90;;;;;;4881462;29;20052;-73
2023/12/09 01:02:51;;;;;;;33.20;7.32;;;8.80;99.90;;;;;;4864763;29;20037;-72
2023/12/09 01:05:17;;;;;;;28.85;7.03;;;8.80;99.90;;;;;;4864567;29;20139;-73
2023/12/09 01:07:43;;;;;;;33.35;7.22;;;8.90;99.90;;;;;;4881878;29;20044;-74
2023/12/09 01:10:08;;;;;;;35.15;8.07;;;8.90;99.90;;;;;;4864650;29;20025;-74
2023/12/09 01:12:34;;;;;;;38.78;7.57;;;8.90;99.90;;;;;;4881392;29;20041;-74
2023/12/09 01:15:00;;;;;;;32.10;7.00;;;8.90;99.90;;;;;;4881322;29;20037;-72
2023/12/09 01:17:25;;;;;;;31.63;8.05;;;8.90;99.90;;;;;;4881479;29;20045;-74
2023/12/09 01:19:51;;;;;;;30.85;6.88;;;8.90;99.90;;;;;;4881307;29;20051;-73
2023/12/09 01:22:16;;;;;;;34.05;8.25;;;8.90;99.90;;;;;;4864953;29;20044;-73
2023/12/09 01:24:42;;;;;;;34.20;7.60;;;8.90;99.90;;;;;;4881971;29;20037;-74
2023/12/09 01:27:08;;;;;;;34.15;7.68;;;8.90;99.90;;;;;;4882230;29;20037;-74
2023/12/09 01:29:36;;;;;;;29.88;7.47;;;8.90;99.90;;;;;;4881924;29;20454;-74
2023/12/09 01:32:02;;;;;;;26.20;6.93;;;8.90;99.90;;;;;;4881580;29;20537;-74
2023/12/09 01:34:27;;;;;;;32.63;8.35;;;8.90;99.90;;;;;;4881194;29;20037;-73
2023/12/09 01:36:54;;;;;;;33.13;8.23;;;8.90;99.90;;;;;;4880047;29;20037;-74
2023/12/09 01:39:20;;;;;;;38.08;7.18;;;8.90;99.90;;;;;;4880737;29;20088;-73
2023/12/09 01:41:45;;;;;;;29.67;7.60;;;8.90;99.90;;;;;;4848972;29;20124;-72
2023/12/09 01:44:11;;;;;;;29.27;7.07;;;8.90;99.90;;;;;;4881195;29;20048;-72
2023/12/09 01:46:38;;;;;;;30.50;7.72;;;8.90;99.90;;;;;;4880884;29;20505;-72
2023/12/09 01:49:05;;;;;;;38.50;7.15;;;8.90;99.90;;;;;;4881010;29;20108;-73
2023/12/09 01:51:32;;;;;;;30.23;7.43;;;8.80;99.90;;;;;;4864574;29;20039;-73
2023/12/09 01:53:58;;;;;;;30.73;7.13;;;8.80;99.90;;;;;;4880686;29;20505;-73
2023/12/09 01:56:24;;;;;;;28.17;7.65;;;8.80;99.90;;;;;;4880635;29;20037;-72
2023/12/09 01:58:50;;;;;;;37.97;7.35;;;8.80;99.90;;;;;;4880654;29;20044;-73
2023/12/09 02:01:16;;;;;;;33.03;8.15;;;8.80;99.90;;;;;;4880477;29;20064;-73
2023/12/09 02:03:42;;;;;;;29.98;7.93;;;8.80;99.90;;;;;;4880460;29;20466;-74
2023/12/09 02:06:09;;;;;;;31.13;7.38;;;8.80;99.90;;;;;;4880582;29;20065;-73
2023/12/09 02:08:35;;;;;;;37.55;7.85;;;8.80;99.90;;;;;;4880511;29;20037;-73
2023/12/09 02:11:29;;;;;;;37.03;8.48;;;8.80;99.90;;;;;;4880596;29;20041;-73
2023/12/09 02:14:10;;;;;;;;;;;8.80;99.90;;;;;;4880667;29;20037;-73
2023/12/09 02:17:07;;;;;;;26.50;8.05;;;8.80;99.90;;;;;;4879764;29;20412;-74
2023/12/09 02:19:33;;;;;;;33.63;8.27;;;8.80;99.90;;;;;;4880408;29;20462;-73
2023/12/09 02:22:02;;;;;;;32.63;7.35;;;8.80;99.90;;;;;;4863685;29;20025;-73
2023/12/09 02:24:28;;;;;;;33.75;8.80;;;8.80;99.90;;;;;;4880305;29;20033;-73
2023/12/09 02:26:56;;;;;;;26.63;7.85;;;8.90;99.90;;;;;;4879691;29;20112;-73
2023/12/09 02:29:25;;;;;;;30.75;8.55;;;8.80;99.90;;;;;;4862911;29;20040;-73
2023/12/09 02:31:54;;;;;;;35.75;8.23;;;8.80;99.90;;;;;;4863209;29;20033;-73
2023/12/09 02:34:21;;;;;;;33.70;7.38;;;8.80;99.90;;;;;;4879697;29;20025;-73
2023/12/09 02:36:48;;;;;;;34.22;7.68;;;8.80;99.90;;;;;;4880080;29;20045;-73
2023/12/09 02:39:15;;;;;;;32.83;7.63;;;8.80;99.90;;;;;;4879789;29;20033;-73
2023/12/09 02:41:42;;;;;;;35.28;8.18;;;8.80;99.90;;;;;;4879469;29;20084;-74
2023/12/09 02:44:08;;;;;;;30.95;7.20;;;8.80;99.90;;;;;;4879712;29;20059;-74
2023/12/09 02:46:33;;;;;;;33.25;8.27;;;8.80;99.90;;;;;;4879403;29;20120;-73
2023/12/09 02:49:00;;;;;;;29.73;7.70;;;8.80;99.90;;;;;;4879723;29;20493;-73
2023/12/09 02:51:25;;;;;;;23.85;6.30;;;8.70;99.90;;;;;;4879846;29;20029;-73
2023/12/09 02:53:51;;;;;;;31.75;7.85;;;8.80;99.90;;;;;;4879879;29;20040;-73
2023/12/09 02:56:16;;;;;;;32.58;6.88;;;8.80;99.90;;;;;;4879195;29;20052;-73
2023/12/09 02:58:42;;;;;;;28.83;7.53;;;8.80;99.90;;;;;;4879247;29;20117;-73
2023/12/09 03:01:08;;;;;;;26.10;7.05;;;8.70;99.90;;;;;;4879548;29;20033;-73
2023/12/09 03:03:33;;;;;;;30.50;8.27;;;8.80;99.90;;;;;;4879737;29;20033;-73
2023/12/09 03:05:59;;;;;;;32.03;7.72;;;8.80;99.90;;;;;;4879737;29;20503;-73
2023/12/09 03:08:24;;;;;;;34.75;7.38;;;8.80;99.90;;;;;;4879165;29;20183;-73
2023/12/09 03:10:50;;;;;;;31.67;7.75;;;8.70;99.90;;;;;;4879577;29;20060;-73
2023/12/09 03:13:16;;;;;;;28.55;7.28;;;8.70;99.90;;;;;;4862209;29;20025;-73
2023/12/09 03:15:41;;;;;;;24.60;6.72;;;8.70;99.90;;;;;;4863006;29;20116;-73
2023/12/09 03:18:07;;;;;;;35.72;7.57;;;8.70;99.90;;;;;;4879422;29;20450;-73
2023/12/09 03:20:33;;;;;;;27.77;6.65;;;8.80;99.90;;;;;;4879039;29;20033;-73
2023/12/09 03:22:58;;;;;;;31.42;7.65;;;8.80;99.90;;;;;;4879406;29;20134;-72
2023/12/09 03:25:24;;;;;;;27.98;6.65;;;8.80;99.90;;;;;;4879250;29;20068;-72
2023/12/09 03:27:49;;;;;;;31.30;7.38;;;8.80;99.90;;;;;;4879245;29;20160;-73
2023/12/09 03:30:15;;;;;;;24.73;6.80;;;8.80;99.90;;;;;;4879648;29;20076;-73
2023/12/09 03:32:41;;;;;;;24.88;6.13;;;8.80;99.90;;;;;;4879193;29;20186;-73
2023/12/09 03:35:09;;;;;;;32.90;6.95;;;8.80;99.90;;;;;;4862563;29;20061;-73
2023/12/09 03:37:35;;;;;;;21.60;5.57;;;8.80;99.90;;;;;;4879008;29;20041;-72
2023/12/09 03:40:02;;;;;;;26.35;5.78;;;8.80;99.90;;;;;;4862475;29;20040;-72
2023/12/09 03:42:27;;;;;;;26.95;6.18;;;8.90;99.90;;;;;;4879072;29;20037;-72
2023/12/09 03:44:53;;;;;;;29.00;7.53;;;8.80;99.90;;;;;;4879091;29;20041;-72
2023/12/09 03:47:19;;;;;;;21.83;5.93;;;8.90;99.90;;;;;;4862810;29;20471;-72
2023/12/09 03:49:44;;;;;;;28.83;5.85;;;8.80;99.90;;;;;;4879363;29;20109;-72
2023/12/09 03:52:10;;;;;;;23.98;6.90;;;8.90;99.90;;;;;;4879219;29;20219;-72
2023/12/09 03:54:37;;;;;;;27.15;6.63;;;8.90;99.90;;;;;;4879483;29;20092;-72
2023/12/09 03:57:03;;;;;;;24.42;7.15;;;8.90;99.90;;;;;;4879863;29;20045;-72
2023/12/09 03:59:29;;;;;;;28.15;6.85;;;8.90;99.90;;;;;;4881301;29;20178;-72
2023/12/09 04:01:54;;;;;;;24.13;6.45;;;8.90;99.90;;;;;;4882672;29;20045;-73
2023/12/09 04:04:20;;;;;;;27.05;6.45;;;8.90;99.90;;;;;;4882704;29;20063;-72
2023/12/09 04:06:46;;;;;;;28.65;5.55;;;8.90;99.90;;;;;;4882431;29;20497;-73
2023/12/09 04:09:11;;;;;;;26.88;5.40;;;8.90;99.90;;;;;;4882395;29;20044;-73
2023/12/09 04:11:37;;;;;;;24.67;5.50;;;8.90;99.90;;;;;;4882638;29;20044;-73
2023/12/09 04:14:04;;;;;;;26.63;5.70;;;8.90;99.90;;;;;;4882399;29;20443;-72
2023/12/09 04:16:29;;;;;;;25.92;6.13;;;8.90;99.90;;;;;;4882271;29;20052;-73
2023/12/09 04:18:55;;;;;;;27.17;5.80;;;8.90;99.90;;;;;;4882269;29;20394;-73
2023/12/09 04:21:21;;;;;;;25.65;5.97;;;8.80;99.90;;;;;;4882560;29;20513;-72
2023/12/09 04:23:47;;;;;;;26.33;6.13;;;8.80;99.90;;;;;;4882560;29;20039;-72
2023/12/09 04:26:13;;;;;;;26.45;5.70;;;8.80;99.90;;;;;;4882093;29;20033;-74
2023/12/09 04:28:39;;;;;;;29.25;5.05;;;8.80;99.90;;;;;;4882179;29;20048;-74
2023/12/09 04:31:05;;;;;;;28.88;5.93;;;8.80;99.90;;;;;;4881912;29;20085;-74
2023/12/09 04:33:30;;;;;;;32.60;5.38;;;8.70;99.90;;;;;;4882261;29;20450;-75
2023/12/09 04:35:56;;;;;;;28.50;5.22;;;8.80;99.90;;;;;;4881950;29;20474;-75
2023/12/09 04:38:22;;;;;;;31.45;6.05;;;8.80;99.90;;;;;;4881684;29;20041;-74
2023/12/09 04:40:47;;;;;;;28.23;5.20;;;8.70;99.90;;;;;;4865321;29;20081;-75
2023/12/09 04:43:13;;;;;;;23.52;5.40;;;8.60;99.90;;;;;;4881859;29;20196;-74
2023/12/09 04:45:38;;;;;;;30.63;5.88;;;8.60;99.90;;;;;;4881950;29;20497;-74
2023/12/09 04:48:04;;;;;;;29.13;5.57;;;8.60;99.90;;;;;;4865432;29;20467;-75
2023/12/09 04:50:30;;;;;;;22.85;4.60;;;8.60;99.90;;;;;;4881719;29;20178;-73
2023/12/09 04:52:56;;;;;;;27.42;6.22;;;8.60;99.90;;;;;;4881757;29;20498;-74
2023/12/09 04:55:21;;;;;;;31.85;5.70;;;8.50;99.90;;;;;;4864620;29;20037;-74
2023/12/09 04:57:47;;;;;;;28.13;5.57;;;8.50;99.90;;;;;;4881708;29;20048;-73
2023/12/09 05:00:13;;;;;;;29.02;5.97;;;8.50;99.90;;;;;;4881633;29;20036;-74
2023/12/09 05:02:39;;;;;;;21.63;4.97;;;8.50;99.90;;;;;;4865511;29;20121;-74
2023/12/09 05:05:05;;;;;;;23.20;5.13;;;8.50;99.90;;;;;;4881546;29;20132;-73
2023/12/09 05:07:31;;;;;;;26.67;5.03;;;8.50;99.90;;;;;;4849436;29;20478;-74
2023/12/09 05:09:56;;;;;;;28.05;5.13;;;8.50;99.90;;;;;;4881197;29;20128;-74
2023/12/09 05:12:22;;;;;;;24.83;5.20;;;8.40;99.90;;;;;;4865369;29;20521;-74
2023/12/09 05:14:48;;;;;;;27.20;5.40;;;8.40;99.90;;;;;;4881295;29;20076;-74
2023/12/09 05:17:15;;;;;;;22.92;4.82;;;8.40;99.90;;;;;;4880965;29;20072;-74
2023/12/09 05:19:40;;;;;;;26.63;4.80;;;8.40;99.90;;;;;;4881514;29;20029;-74
2023/12/09 05:22:07;;;;;;;24.73;5.00;;;8.40;99.90;;;;;;4881637;29;20033;-74
2023/12/09 05:24:32;;;;;;;31.58;5.72;;;8.40;99.90;;;;;;4881432;29;20033;-74
2023/12/09 05:26:58;;;;;;;19.95;5.15;;;8.40;99.90;;;;;;4864538;29;20048;-74
2023/12/09 05:29:24;;;;;;;25.77;5.57;;;8.40;99.90;;;;;;4880832;29;20033;-73
2023/12/09 05:31:49;;;;;;;31.33;6.25;;;8.40;99.90;;;;;;4880717;29;20064;-73
2023/12/09 05:34:15;;;;;;;27.55;6.47;;;8.40;99.90;;;;;;4864341;29;20115;-73
2023/12/09 05:36:41;;;;;;;29.88;6.07;;;8.30;99.90;;;;;;4880951;29;20048;-73
2023/12/09 05:39:07;;;;;;;26.13;5.80;;;8.30;99.90;;;;;;4880815;29;20029;-74
2023/12/09 05:41:32;;;;;;;27.80;5.63;;;8.30;99.90;;;;;;4880855;29;20041;-74
2023/12/09 05:43:58;;;;;;;33.10;6.63;;;8.20;99.90;;;;;;4880810;29;20033;-74
2023/12/09 05:46:23;;;;;;;31.90;6.38;;;8.20;99.90;;;;;;4881090;29;20390;-74
2023/12/09 05:48:49;;;;;;;29.50;5.38;;;8.20;99.90;;;;;;4881186;29;20385;-74
2023/12/09 05:51:15;;;;;;;21.70;5.00;;;8.10;99.90;;;;;;4880520;29;20511;-74
2023/12/09 05:53:41;;;;;;;24.63;5.15;;;8.10;99.90;;;;;;4863859;29;20466;-74
2023/12/09 05:56:11;;;;;;;24.02;5.03;;;8.20;99.90;;;;;;4880290;29;20029;-74
2023/12/09 05:58:38;;;;;;;27.27;5.88;;;8.20;99.90;;;;;;4864647;29;20037;-74
2023/12/09 06:01:04;;;;;;;26.33;5.38;;;8.10;99.90;;;;;;4880571;29;20044;-74
2023/12/09 06:03:29;;;;;;;28.63;6.43;;;8.10;99.90;;;;;;4880125;29;20033;-73
2023/12/09 06:05:57;;;;;;;25.80;5.90;;;8.10;99.90;;;;;;4879981;29;20057;-74
2023/12/09 06:08:23;;;;;;;21.00;5.25;;;8.10;99.90;;;;;;4879935;29;20033;-74
2023/12/09 06:10:49;;;;;;;20.30;4.95;;;8.10;99.90;;;;;;4880339;29;20601;-74
2023/12/09 06:13:15;;;;;;;34.10;6.03;;;8.10;99.90;;;;;;4848058;29;20041;-74
2023/12/09 06:15:41;;;;;;;28.45;4.93;;;8.10;99.90;;;;;;4880218;29;20470;-74
2023/12/09 06:18:06;;;;;;;24.45;5.25;;;8.10;99.90;;;;;;4879953;29;20053;-74
2023/12/09 06:20:32;;;;;;;32.63;5.32;;;8.00;99.90;;;;;;4864860;29;20030;-75
2023/12/09 06:22:58;;;;;;;28.83;6.60;;;8.10;99.90;;;;;;4863983;29;20403;-74
2023/12/09 06:25:23;;;;;;;28.75;5.15;;;8.00;99.90;;;;;;4881653;29;20527;-74
2023/12/09 06:27:49;;;;;;;20.67;4.75;;;8.00;99.90;;;;;;4881253;29;20390;-74
2023/12/09 06:30:14;;;;;;;26.17;5.30;;;8.00;99.90;;;;;;4881254;29;20076;-74
2023/12/09 06:32:41;;;;;;;28.88;5.47;;;8.00;99.90;;;;;;4880706;29;20033;-74
2023/12/09 06:35:07;;;;;;;25.90;5.13;;;8.00;99.90;;;;;;4880323;29;20032;-74
2023/12/09 06:37:33;;;;;;;19.42;4.78;;;7.90;99.90;;;;;;4880004;29;20037;-74
2023/12/09 06:39:59;;;;;;;24.73;4.82;;;7.90;99.90;;;;;;4879942;29;20100;-74
2023/12/09 06:42:24;;;;;;;28.55;5.20;;;7.90;99.90;;;;;;4879935;29;20116;-74
2023/12/09 06:44:50;;;;;;;26.30;5.57;;;7.90;99.90;;;;;;4879700;29;20474;-74
2023/12/09 06:47:16;;;;;;;23.65;6.03;;;7.90;99.90;;;;;;4880269;29;20407;-74
2023/12/09 06:49:41;;;;;;;24.05;3.88;;;7.90;99.90;;;;;;4879530;29;20041;-74
2023/12/09 06:52:07;;;;;;;24.65;5.47;;;7.90;99.90;;;;;;4879613;29;20077;-74
2023/12/09 06:54:33;;;;;;;26.80;4.60;;;7.90;99.90;;;;;;4879923;29;20071;-74
2023/12/09 06:56:58;;;;;;;28.60;6.10;;;7.90;99.90;;;;;;4879110;29;20041;-74
2023/12/09 06:59:25;;;;;;;24.05;4.05;;;7.90;99.90;;;;;;4879386;29;20033;-74
2023/12/09 07:01:51;;;;;;;23.63;4.72;;;7.90;99.90;;;;;;4862610;29;20033;-74
2023/12/09 07:04:17;;;;;;;20.60;4.43;;;7.80;99.90;;;;;;4878826;29;20513;-73
2023/12/09 07:06:43;;;;;;;20.73;4.65;;;7.80;99.90;;;;;;4863082;29;20355;-74
2023/12/09 07:09:09;;;;;;;20.90;4.30;;;7.80;99.90;;;;;;4879242;29;20029;-74
2023/12/09 07:11:34;;;;;;;23.35;4.63;;;7.90;99.90;;;;;;4878819;29;20070;-74
2023/12/09 07:14:00;;;;;;;27.38;5.60;;;7.90;99.90;;;;;;4879241;29;20033;-74
2023/12/09 07:16:26;;;;;;;22.25;4.15;;;7.90;99.90;;;;;;4878884;29;20041;-74
2023/12/09 07:18:58;;;;;;;20.08;5.07;;;7.90;99.90;;;;;;4862501;29;20064;-74
2023/12/09 07:21:25;;;;;;;18.48;4.53;;;7.90;99.90;;;;;;4879710;29;20458;-74
2023/12/09 07:23:51;;;;;;;21.05;4.05;;;7.90;99.90;;;;;;4879446;29;20099;-77
2023/12/09 07:26:18;;;;;;;24.27;4.20;;;7.90;99.90;;;;;;4879119;29;20403;-79
2023/12/09 07:28:44;;;;;;;27.17;5.32;;;8.00;99.90;;;;;;4862464;29;20037;-81
2023/12/09 07:31:10;;;;;;;24.85;4.30;;;8.00;99.90;;;;;;4879069;29;20041;-80
2023/12/09 07:33:36;;;;;;;18.33;4.45;;;8.00;99.90;;;;;;4862948;29;20037;-78
2023/12/09 07:36:02;;;;;;;23.17;3.67;;;8.00;99.90;;;;;;4866451;29;20498;-78
2023/12/09 07:38:27;;;;;;;19.88;3.63;;;8.10;99.90;;;;;;4882347;29;20096;-78
2023/12/09 07:40:53;;;;;;;22.25;4.35;;;8.10;99.90;;;;;;4882647;29;20033;-79
2023/12/09 07:43:19;;;;;;;18.08;3.50;;;8.10;99.90;;;;;;4882371;29;20162;-79
2023/12/09 07:45:45;;;;;;;22.65;3.75;;;8.10;99.90;;;;;;4866045;29;20037;-79
2023/12/09 07:48:10;;;;;;;24.67;3.88;;;8.20;99.90;;;;;;4882987;29;20029;-79
2023/12/09 07:50:36;;;;;;;12.75;2.90;;;8.10;99.90;;;;;;4882350;29;20502;-79
2023/12/09 07:53:02;;;;;;;22.05;3.70;;;8.20;99.90;;;;;;4883039;29;20048;-79
2023/12/09 07:55:28;;;;;;;19.98;3.83;;;8.20;99.90;;;;;;4882579;29;20192;-84
2023/12/09 07:57:53;;;;;;;18.98;3.42;;;8.20;99.90;;;;;;4882381;29;20514;-82
2023/12/09 08:00:19;;;;;;;19.55;3.80;;;8.20;99.90;;;;;;4882236;29;20037;-84
2023/12/09 08:02:45;;;;;;;22.80;3.30;;;8.20;99.90;;;;;;4882694;29;20052;-84
2023/12/09 08:05:11;;;;;;;21.00;3.85;;;8.20;99.90;;;;;;4882251;29;20061;-86
2023/12/09 08:07:37;;;;;;;26.42;4.55;;;8.20;99.90;;;;;;4882616;29;20033;-85
2023/12/09 08:10:02;;;;;;;21.63;3.92;;;8.20;99.90;;;;;;4882288;29;20029;-85
2023/12/09 08:12:28;;;;;;;20.05;3.13;;;8.30;99.90;;;;;;4882265;29;20047;-84
2023/12/09 08:14:54;;;;;;;20.20;3.65;;;8.30;99.90;;;;;;4850812;29;20081;-86
2023/12/09 08:17:19;;;;;;;20.38;3.15;;;8.30;99.90;;;;;;4882016;29;20489;-85
2023/12/09 08:19:45;;;;;;;18.63;3.28;;;8.40;99.90;;;;;;4866119;29;20434;-85
2023/12/09 08:22:12;;;;;;;19.65;3.15;;;8.30;99.90;;;;;;4882031;29;20037;-84
2023/12/09 08:24:37;;;;;;;17.67;3.70;;;8.30;99.90;;;;;;4882165;29;20491;-84
2023/12/09 08:27:03;;;;;;;18.50;3.65;;;8.40;99.90;;;;;;4865643;29;20037;-83
2023/12/09 08:29:29;;;;;;;19.10;3.58;;;8.40;99.90;;;;;;4882743;29;20076;-91
2023/12/09 08:31:56;;;;;;;21.92;6.85;;;8.40;99.90;;;;;;4883834;29;20085;-88
2023/12/09 08:34:22;;;;;;;27.58;10.80;;;8.40;99.90;;;;;;4883358;29;20127;-86
2023/12/09 08:36:48;;;;;;;19.85;7.88;;;8.50;99.90;;;;;;4881994;29;20169;-88
2023/12/09 08:39:14;;;;;;;20.45;4.43;;;8.50;99.90;;;;;;4882316;29;20044;-85
2023/12/09 08:41:40;;;;;;;19.65;2.95;;;8.40;99.90;;;;;;4866255;29;20033;-86
2023/12/09 08:44:06;;;;;;;16.13;3.25;;;8.40;99.90;;;;;;4851531;29;20040;-92
2023/12/09 08:46:32;;;;;;;15.90;3.88;;;8.40;99.90;;;;;;4885712;29;20065;-89
2023/12/09 08:48:58;;;;;;;18.00;2.83;;;8.40;99.90;;;;;;4883433;29;20056;-83
2023/12/09 08:51:24;;;;;;;20.40;2.60;;;8.40;99.90;;;;;;4881959;29;20033;-82
2023/12/09 08:54:00;;;;;;;17.63;2.70;;;8.50;99.90;;;;;;4884587;29;20029;-81
2023/12/09 08:56:25;;;;;;;18.80;3.38;;;8.60;99.90;;;;;;4885224;29;20081;-83
2023/12/09 08:58:51;;;;;;;16.52;2.65;;;8.50;99.90;;;;;;4891101;29;20057;-86
2023/12/09 09:01:16;;;;;;;16.77;2.00;;;8.50;99.90;;;;;;4865917;29;20033;-84
2023/12/09 09:03:43;;;;;;;16.65;2.95;;;8.60;99.90;;;;;;4882026;29;20128;-84
2023/12/09 09:06:08;;;;;;;14.52;2.00;;;8.60;99.90;;;;;;4881550;29;20494;-84
2023/12/09 09:08:34;;;;;;;12.73;2.47;;;8.60;99.90;;;;;;4881863;29;20040;-83
2023/12/09 09:10:59;;;;;;;17.92;2.55;;;8.50;99.90;;;;;;4881241;29;20048;-85
2023/12/09 09:13:28;;;;;;;14.65;2.20;;;8.60;99.90;;;;;;4881405;29;20029;-82
2023/12/09 09:15:54;;;;;;;14.65;2.00;;;8.60;99.90;;;;;;4864524;29;20033;-82
2023/12/09 09:18:21;;;;;;;17.77;2.70;;;8.60;99.90;;;;;;4880890;29;20065;-83
2023/12/09 09:20:46;;;;;;;20.08;2.40;;;8.60;99.90;;;;;;4881177;29;20053;-84
2023/12/09 09:23:12;;;;;;;13.48;2.53;;;8.60;99.90;;;;;;4881515;29;20105;-83
2023/12/09 09:25:38;;;;;;;13.70;2.60;;;8.70;99.90;;;;;;4881044;29;20029;-84
2023/12/09 09:28:04;;;;;;;14.75;2.10;;;8.70;99.90;;;;;;4848865;29;20067;-80
2023/12/09 09:30:29;;;;;;;15.48;2.83;;;8.70;99.90;;;;;;4881229;29;20128;-83
2023/12/09 09:32:55;;;;;;;16.75;2.53;;;8.70;99.90;;;;;;4881081;29;20168;-81
2023/12/09 09:35:21;;;;;;;14.32;2.72;;;8.70;99.90;;;;;;4881136;29;20073;-84
2023/12/09 09:37:47;;;;;;;13.95;2.33;;;8.70;99.90;;;;;;4881012;29;20097;-83
2023/12/09 09:40:14;;;;;;;13.90;2.30;;;8.70;99.90;;;;;;4880562;29;20100;-84
2023/12/09 09:42:49;;;;;;;13.45;2.42;;;8.70;99.90;;;;;;4864127;29;20454;-83
2023/12/09 09:45:21;;;;;;;13.45;2.45;;;8.70;99.90;;;;;;4880660;29;20044;-83
2023/12/09 09:47:53;;;;;;;14.05;1.75;;;8.70;99.90;;;;;;4880506;29;20335;-81
2023/12/09 09:50:23;;;;;;;11.32;2.20;;;8.70;99.90;;;;;;4880486;29;20178;-83
2023/12/09 09:52:50;;;;;;;13.63;2.65;;;8.80;99.90;;;;;;4881285;29;20033;-83
2023/12/09 09:55:18;;;;;;;12.95;2.03;;;8.80;99.90;;;;;;4863668;29;20144;-82
2023/12/09 09:57:44;;;;;;;15.70;2.38;;;8.80;99.90;;;;;;4862776;29;20045;-83
2023/12/09 10:00:14;;;;;;;9.52;2.40;;;8.90;99.90;;;;;;4880721;29;20191;-80
2023/12/09 10:02:47;;;;;;;16.42;2.67;;;8.90;99.90;;;;;;4863728;29;20441;-81
2023/12/09 10:05:17;;;;;;;8.88;1.65;;;8.90;99.90;;;;;;4880908;29;20144;-84
2023/12/09 10:07:44;;;;;;;12.10;1.77;;;8.90;99.90;;;;;;4880704;29;20040;-82
2023/12/09 10:10:11;;;;;;;10.88;1.80;;;9.00;99.90;;;;;;4880261;29;20033;-81
2023/12/09 10:12:37;;;;;;;17.50;2.42;;;9.00;99.90;;;;;;4863921;29;20423;-78
2023/12/09 10:15:04;;;;;;;11.50;2.20;;;9.00;99.90;;;;;;4880321;29;20051;-78
2023/12/09 10:17:31;;;;;;;12.13;2.42;;;9.00;99.90;;;;;;4863384;29;20045;-83
2023/12/09 10:19:59;;;;;;;20.25;2.30;;;9.10;99.90;;;;;;4880355;29;20033;-79
2023/12/09 10:22:27;;;;;;;13.98;1.50;;;9.10;99.90;;;;;;4880773;29;20029;-85
2023/12/09 10:24:54;;;;;;;14.43;2.05;;;9.20;99.90;;;;;;4880807;29;20032;-84
2023/12/09 10:27:24;;;;;;;10.00;1.55;;;9.20;99.90;;;;;;4880430;29;20100;-81
2023/12/09 10:29:54;;;;;;;14.82;2.10;;;9.20;99.90;;;;;;4882366;29;20037;-84
2023/12/09 10:32:24;;;;;;;15.65;1.85;;;9.20;99.90;;;;;;4879923;29;20041;-76
2023/12/09 10:34:51;;;;;;;14.55;1.95;;;9.20;99.90;;;;;;4880376;29;20041;-85
2023/12/09 10:37:18;;;;;;;17.77;1.92;;;9.20;99.90;;;;;;4879833;29;20069;-81
2023/12/09 10:39:45;;;;;;;10.00;1.50;;;9.20;99.90;;;;;;4879843;29;20064;-83
2023/12/09 10:42:10;;;;;;;14.55;1.98;;;9.20;99.90;;;;;;4862682;29;20037;-80
2023/12/09 10:44:36;;;;;;;12.95;2.45;;;9.20;99.90;;;;;;4879642;29;20132;-80
2023/12/09 10:47:03;;;;;;;11.48;2.10;;;9.20;99.90;;;;;;4879836;29;20053;-79
2023/12/09 10:49:30;;;;;;;32.00;5.82;;;9.20;99.90;;;;;;4847502;29;20044;-83
2023/12/09 10:51:56;;;;;;;10.07;1.60;;;9.20;99.90;;;;;;4847782;29;20120;-79
2023/12/09 10:54:21;;;;;;;11.23;1.77;;;9.30;99.90;;;;;;4879173;29;20128;-83
2023/12/09 10:56:48;;;;;;;17.50;2.05;;;9.30;99.90;;;;;;4879460;29;20172;-81
2023/12/09 10:59:19;;;;;;;10.18;1.55;;;9.30;99.90;;;;;;4879436;29;20037;-81
2023/12/09 11:01:46;;;;;;;14.15;2.42;;;9.30;99.90;;;;;;4879622;29;20037;-81
2023/12/09 11:04:12;;;;;;;11.68;1.85;;;9.30;99.90;;;;;;4879427;29;20041;-82
2023/12/09 11:06:40;;;;;;;11.63;1.85;;;9.30;99.90;;;;;;4879327;29;20069;-81
2023/12/09 11:09:08;;;;;;;11.80;2.13;;;9.30;99.90;;;;;;4879471;29;20029;-82
2023/12/09 11:11:34;;;;;;;11.82;1.50;;;9.30;99.90;;;;;;4878998;29;20065;-81
2023/12/09 11:14:00;;;;;;;10.15;1.90;;;9.30;99.90;;;;;;4879650;29;20362;-82
2023/12/09 11:16:29;;;;;;;14.40;1.75;;;9.30;99.90;;;;;;4863579;29;20041;-82
2023/12/09 11:18:56;;;;;;;17.60;2.65;;;9.30;99.90;;;;;;4879886;29;20037;-81
2023/12/09 11:21:31;;;;;;;10.90;1.70;;;9.20;99.90;;;;;;4880563;29;20052;-82
2023/12/09 11:23:58;;;;;;;10.63;1.33;;;9.20;99.90;;;;;;4884507;29;20033;-81
2023/12/09 11:26:31;;;;;;;16.92;1.88;;;9.20;99.90;;;;;;4882497;29;20056;-81
2023/12/09 11:29:12;;;;;;;11.10;1.35;;;9.20;99.90;;;;;;4883972;29;20100;-82
2023/12/09 11:31:42;;;;;;;12.35;1.67;;;9.20;99.90;;;;;;4879799;29;20101;-81
2023/12/09 11:34:13;;;;;;;11.90;1.85;;;9.20;99.90;;;;;;4879134;29;20029;-82
2023/12/09 11:36:40;;;;;;;8.13;1.48;;;9.20;99.90;;;;;;4879277;29;20037;-81
2023/12/09 11:39:14;;;;;;;12.20;1.63;;;9.20;99.90;;;;;;4878895;29;20493;-82
2023/12/09 11:41:41;;;;;;;10.45;1.67;;;9.10;99.90;;;;;;4862785;29;20499;-82
2023/12/09 11:44:07;;;;;;;10.32;1.50;;;9.10;99.90;;;;;;4862816;29;20089;-81
2023/12/09 11:46:34;;;;;;;9.65;1.30;;;9.10;99.90;;;;;;4863506;29;20032;-81
2023/12/09 11:49:02;;;;;;;13.82;2.08;;;9.10;99.90;;;;;;4879102;29;20177;-82
2023/12/09 11:51:29;;;;;;;13.30;1.63;;;9.10;99.90;;;;;;4862565;29;20029;-81
2023/12/09 11:53:56;;;;;;;8.48;1.20;;;9.10;99.90;;;;;;4862155;29;20470;-82
2023/12/09 11:56:23;;;;;;;8.68;1.75;;;9.20;99.90;;;;;;4878888;29;20033;-81
2023/12/09 11:58:48;;;;;;;13.20;1.48;;;9.20;99.90;;;;;;4879024;29;20056;-82
2023/12/09 12:01:15;;;;;;;10.55;1.45;;;9.10;99.90;;;;;;4878777;29;20081;-82
2023/12/09 12:03:40;;;;;;;9.50;1.38;;;9.20;99.90;;;;;;4878778;29;20538;-81
2023/12/09 12:06:06;;;;;;;12.27;1.73;;;9.20;99.90;;;;;;4878397;29;20095;-81
2023/12/09 12:08:32;;;;;;;8.20;1.40;;;9.20;99.90;;;;;;4878644;29;20089;-80
2023/12/09 12:10:58;;;;;;;9.13;1.30;;;9.20;99.90;;;;;;4878870;29;20037;-83
2023/12/09 12:13:23;;;;;;;12.95;1.80;;;9.10;99.90;;;;;;4878605;29;20454;-82
2023/12/09 12:15:49;;;;;;;12.43;2.33;;;9.10;99.90;;;;;;4879051;29;20033;-82
2023/12/09 12:18:15;;;;;;;15.35;2.13;;;9.10;99.90;;;;;;4861840;29;20478;-81
2023/12/09 12:20:41;;;;;;;9.55;1.80;;;9.10;99.90;;;;;;4880498;29;20029;-82
2023/12/09 12:23:06;;;;;;;13.63;2.05;;;9.10;99.90;;;;;;4882405;29;20093;-81
2023/12/09 12:25:32;;;;;;;12.20;1.83;;;9.10;99.90;;;;;;4881747;29;20474;-80
2023/12/09 12:27:58;;;;;;;7.78;1.80;;;9.10;99.90;;;;;;4882367;29;20335;-81
2023/12/09 12:30:24;;;;;;;12.75;1.88;;;9.20;99.90;;;;;;4881903;29;20048;-81
2023/12/09 12:32:56;;;;;;;11.70;1.83;;;9.20;99.90;;;;;;4881993;29;20045;-82
2023/12/09 12:35:25;;;;;;;12.05;2.17;;;9.20;99.90;;;;;;4881877;29;20112;-82
2023/12/09 12:37:50;;;;;;;12.55;1.95;;;9.20;99.90;;;;;;4881499;29;20041;-82
2023/12/09 12:40:17;;;;;;;11.85;1.75;;;9.20;99.90;;;;;;4881709;29;20188;-81
2023/12/09 12:42:43;;;;;;;10.73;2.10;;;9.20;99.90;;;;;;4881792;29;20108;-82
2023/12/09 12:45:19;;;;;;;13.98;1.90;;;9.20;99.90;;;;;;4864719;29;20041;-82